sensor_id;sensor_type;location;lat;lon;timestamp;pressure;altitude;pressure_sealevel;temperature
62107;BMP280;48087;32.600;-97.100;2022-12-17T00:03:19;;;;7.444369999999999
62107;BMP280;48087;32.600;-97.100;2022-12-17T00:08:23;;;;7.333260000000001
62107;BMP280;48087;32.600;-97.100;2022-12-17T00:13:26;;;;7.277705000000001
62107;BMP280;48087;32.600;-97.100;2022-12-17T00:18:32;;;;7.277705000000001
62107;BMP280;48087;32.600;-97.100;2022-12-17T00:23:34;;;;7.22215
62107;BMP280;48087;32.600;-97.100;2022-12-17T00:28:39;;;;7.22215
62107;BMP280;48087;32.600;-97.100;2022-12-17T00:33:43;;;;7.111039999999998
62107;BMP280;48087;32.600;-97.100;2022-12-17T00:38:46;;;;7.111039999999998
62107;BMP280;48087;32.600;-97.100;2022-12-17T00:43:50;;;;7.111039999999998
62107;BMP280;48087;32.600;-97.100;2022-12-17T00:48:55;;;;6.999930000000001
62107;BMP280;48087;32.600;-97.100;2022-12-17T00:53:59;;;;7.111039999999998
62107;BMP280;48087;32.600;-97.100;2022-12-17T00:59:03;;;;7.055485000000002
62107;BMP280;48087;32.600;-97.100;2022-12-17T01:04:07;;;;7.055485000000002
62107;BMP280;48087;32.600;-97.100;2022-12-17T01:09:10;;;;6.888819999999999
62107;BMP280;48087;32.600;-97.100;2022-12-17T01:14:15;;;;6.833264999999998
62107;BMP280;48087;32.600;-97.100;2022-12-17T01:19:19;;;;6.833264999999998
62107;BMP280;48087;32.600;-97.100;2022-12-17T01:24:22;;;;6.888819999999999
62107;BMP280;48087;32.600;-97.100;2022-12-17T01:29:27;;;;6.833264999999998
62107;BMP280;48087;32.600;-97.100;2022-12-17T01:34:31;;;;6.833264999999998
62107;BMP280;48087;32.600;-97.100;2022-12-17T01:39:35;;;;6.888819999999999
62107;BMP280;48087;32.600;-97.100;2022-12-17T01:44:47;;;;6.944375
62107;BMP280;48087;32.600;-97.100;2022-12-17T01:49:42;;;;6.888819999999999
62107;BMP280;48087;32.600;-97.100;2022-12-17T01:54:46;;;;6.777710000000002
62107;BMP280;48087;32.600;-97.100;2022-12-17T01:59:51;;;;6.777710000000002
62107;BMP280;48087;32.600;-97.100;2022-12-17T02:04:54;;;;6.777710000000002
62107;BMP280;48087;32.600;-97.100;2022-12-17T02:10:00;;;;6.722155000000001
62107;BMP280;48087;32.600;-97.100;2022-12-17T02:15:04;;;;6.777710000000002
62107;BMP280;48087;32.600;-97.100;2022-12-17T02:20:10;;;;6.777710000000002
62107;BMP280;48087;32.600;-97.100;2022-12-17T02:25:12;;;;6.722155000000001
62107;BMP280;48087;32.600;-97.100;2022-12-17T02:30:15;;;;6.777710000000002
62107;BMP280;48087;32.600;-97.100;2022-12-17T02:35:19;;;;6.888819999999999
62107;BMP280;48087;32.600;-97.100;2022-12-17T02:40:22;;;;6.888819999999999
62107;BMP280;48087;32.600;-97.100;2022-12-17T02:45:26;;;;6.888819999999999
62107;BMP280;48087;32.600;-97.100;2022-12-17T02:50:31;;;;6.777710000000002
62107;BMP280;48087;32.600;-97.100;2022-12-17T02:55:34;;;;6.6666
62107;BMP280;48087;32.600;-97.100;2022-12-17T03:00:39;;;;6.777710000000002
62107;BMP280;48087;32.600;-97.100;2022-12-17T03:05:42;;;;6.777710000000002
62107;BMP280;48087;32.600;-97.100;2022-12-17T03:10:47;;;;6.777710000000002
62107;BMP280;48087;32.600;-97.100;2022-12-17T03:15:50;;;;6.722155000000001
62107;BMP280;48087;32.600;-97.100;2022-12-17T03:20:54;;;;6.611044999999999
62107;BMP280;48087;32.600;-97.100;2022-12-17T03:25:58;;;;6.555489999999998
62107;BMP280;48087;32.600;-97.100;2022-12-17T03:31:02;;;;6.611044999999999
62107;BMP280;48087;32.600;-97.100;2022-12-17T03:36:06;;;;6.499935000000002
62107;BMP280;48087;32.600;-97.100;2022-12-17T03:41:11;;;;6.499935000000002
62107;BMP280;48087;32.600;-97.100;2022-12-17T03:46:15;;;;6.499935000000002
62107;BMP280;48087;32.600;-97.100;2022-12-17T03:51:19;;;;6.444380000000001
62107;BMP280;48087;32.600;-97.100;2022-12-17T03:56:23;;;;6.388825
62107;BMP280;48087;32.600;-97.100;2022-12-17T04:01:27;;;;6.333269999999999
62107;BMP280;48087;32.600;-97.100;2022-12-17T04:06:31;;;;6.2221600000000015
62107;BMP280;48087;32.600;-97.100;2022-12-17T04:11:35;;;;6.2221600000000015
62107;BMP280;48087;32.600;-97.100;2022-12-17T04:16:39;;;;6.2221600000000015
62107;BMP280;48087;32.600;-97.100;2022-12-17T04:21:41;;;;6.2221600000000015
